createdAt,value
2017-12-17T00:01:55.130Z,94763.17
2017-12-17T00:04:22.752Z,94752.02
2017-12-17T00:06:50.387Z,94750.69
2017-12-17T00:09:18.015Z,94759.20
2017-12-17T00:11:45.594Z,94757.66
2017-12-17T00:14:13.211Z,94777.94
2017-12-17T00:16:40.945Z,94770.62
2017-12-17T00:19:09.266Z,94765.41
2017-12-17T00:21:36.883Z,94768.89
2017-12-17T00:24:04.524Z,94762.34
2017-12-17T00:26:32.098Z,94760.16
2017-12-17T00:28:59.701Z,94764.85
2017-12-17T00:31:27.290Z,94756.30
2017-12-17T00:33:54.829Z,94770.44
2017-12-17T00:36:22.654Z,94770.28
2017-12-17T00:38:50.243Z,94755.65
2017-12-17T00:41:18.166Z,94753.38
2017-12-17T00:43:45.774Z,94753.30
2017-12-17T00:46:13.396Z,94761.52
2017-12-17T00:48:42.368Z,94767.23
2017-12-17T00:51:10.059Z,94768.08
2017-12-17T00:53:37.666Z,94777.61
2017-12-17T00:56:06.136Z,94771.95
2017-12-17T00:58:33.685Z,94771.05
2017-12-17T01:01:01.459Z,94771.73
2017-12-17T01:03:29.199Z,94771.38
2017-12-17T01:05:56.769Z,94769.69
2017-12-17T01:08:24.396Z,94762.09
2017-12-17T01:10:51.922Z,94763.77
2017-12-17T01:13:22.461Z,94758.08
2017-12-17T01:15:51.475Z,94759.42
2017-12-17T01:18:19.631Z,94766.77
2017-12-17T01:20:51.498Z,94761.40
2017-12-17T01:23:19.526Z,94763.50
2017-12-17T01:25:47.067Z,94760.70
2017-12-17T01:28:14.697Z,94753.47
2017-12-17T01:30:42.314Z,94753.35
2017-12-17T01:33:09.863Z,94755.85
2017-12-17T01:35:37.446Z,94755.38
2017-12-17T01:38:05.026Z,94738.14
2017-12-17T01:40:33.499Z,94745.78
2017-12-17T01:43:01.096Z,94745.69
2017-12-17T01:45:28.712Z,94754.23
2017-12-17T01:47:56.482Z,94743.08
2017-12-17T01:50:24.088Z,94752.94
2017-12-17T01:52:51.685Z,94762.88
2017-12-17T01:55:19.287Z,94755.20
2017-12-17T01:57:46.852Z,94750.26
2017-12-17T02:00:14.545Z,94754.42
2017-12-17T02:02:42.155Z,94749.16
2017-12-17T02:05:09.736Z,94751.06
2017-12-17T02:07:37.319Z,94754.63
2017-12-17T02:10:04.891Z,94747.80
2017-12-17T02:12:33.246Z,94748.03
2017-12-17T02:15:00.875Z,94744.27
2017-12-17T02:17:28.699Z,94750.52
2017-12-17T02:19:56.316Z,94751.86
2017-12-17T02:22:23.881Z,94751.54
2017-12-17T02:24:51.461Z,94754.33
2017-12-17T02:27:19.226Z,94758.94
2017-12-17T02:29:46.863Z,94755.70
2017-12-17T02:32:15.225Z,94757.85
2017-12-17T02:34:42.831Z,94762.09
2017-12-17T02:37:10.419Z,94751.16
2017-12-17T02:39:38.011Z,94753.10
2017-12-17T02:42:05.649Z,94748.64
2017-12-17T02:44:33.422Z,94757.94
2017-12-17T02:47:01.365Z,94758.63
2017-12-17T02:49:28.934Z,94768.09
2017-12-17T02:51:56.516Z,94762.17
2017-12-17T02:54:24.141Z,94767.06
2017-12-17T02:56:51.728Z,94762.25
2017-12-17T02:59:19.302Z,94758.64
2017-12-17T03:01:46.908Z,94758.03
2017-12-17T03:04:14.485Z,94738.74
2017-12-17T03:06:42.058Z,94740.22
2017-12-17T03:09:09.723Z,94744.31
2017-12-17T03:11:37.365Z,94761.88
2017-12-17T03:14:04.966Z,94749.83
2017-12-17T03:16:32.551Z,94754.70
2017-12-17T03:19:00.679Z,94755.84
2017-12-17T03:21:28.218Z,94762.13
2017-12-17T03:23:55.838Z,94756.95
2017-12-17T03:26:23.641Z,94755.82
2017-12-17T03:28:51.376Z,94752.97
2017-12-17T03:31:19.774Z,94746.52
2017-12-17T03:33:47.381Z,94749.89
2017-12-17T03:36:14.942Z,94743.95
2017-12-17T03:38:43.030Z,94746.03
2017-12-17T03:41:10.830Z,94738.17
2017-12-17T03:43:39.251Z,94736.73
2017-12-17T03:46:06.907Z,94733.15
2017-12-17T03:48:34.497Z,94741.41
2017-12-17T03:51:02.214Z,94738.06
2017-12-17T03:53:30.315Z,94725.38
2017-12-17T03:55:58.430Z,94730.23
2017-12-17T03:58:26.067Z,94729.00
2017-12-17T04:00:53.851Z,94721.13
2017-12-17T04:03:21.401Z,94719.00
2017-12-17T04:05:48.977Z,94705.89
2017-12-17T04:08:17.395Z,94706.70
2017-12-17T04:10:45.096Z,94713.73
2017-12-17T04:13:12.675Z,94707.45
2017-12-17T04:15:40.287Z,94710.47
2017-12-17T04:18:07.948Z,94695.35
2017-12-17T04:20:35.547Z,94693.26
2017-12-17T04:23:03.163Z,94697.41
2017-12-17T04:25:31.592Z,94701.13
2017-12-17T04:27:59.233Z,94714.16
2017-12-17T04:30:27.006Z,94726.86
2017-12-17T04:32:54.825Z,94725.25
2017-12-17T04:35:22.410Z,94725.25
2017-12-17T04:37:49.987Z,94732.69
2017-12-17T04:40:17.596Z,94725.26
2017-12-17T04:42:45.150Z,94727.72
2017-12-17T04:45:13.932Z,94719.58
2017-12-17T04:47:41.558Z,94700.02
2017-12-17T04:50:09.167Z,94704.16
2017-12-17T04:52:36.894Z,94696.02
2017-12-17T04:55:04.696Z,94710.47
2017-12-17T04:57:32.551Z,94729.83
2017-12-17T05:00:00.170Z,94723.39
2017-12-17T05:02:27.800Z,94730.16
2017-12-17T05:04:55.433Z,94730.31
2017-12-17T05:07:23.313Z,94738.41
2017-12-17T05:09:50.944Z,94743.43
2017-12-17T05:12:18.542Z,94738.36
2017-12-17T05:14:46.312Z,94733.28
2017-12-17T05:17:13.900Z,94744.30
2017-12-17T05:19:41.447Z,94744.91
2017-12-17T05:22:09.055Z,94740.72
2017-12-17T05:24:36.641Z,94736.67
2017-12-17T05:27:04.231Z,94730.39
2017-12-17T05:29:32.052Z,94733.08
2017-12-17T05:31:59.744Z,94750.10
2017-12-17T05:34:27.370Z,94753.50
2017-12-17T05:36:55.324Z,94757.79
2017-12-17T05:39:22.929Z,94754.96
2017-12-17T05:41:50.479Z,94759.20
2017-12-17T05:44:18.257Z,94769.06
2017-12-17T05:46:45.883Z,94779.81
2017-12-17T05:49:13.509Z,94775.39
2017-12-17T05:51:41.361Z,94765.53
2017-12-17T05:54:09.873Z,94771.71
2017-12-17T05:56:37.736Z,94759.09
2017-12-17T05:59:05.346Z,94779.91
2017-12-17T06:01:33.013Z,94764.87
2017-12-17T06:04:00.804Z,94764.45
2017-12-17T06:06:28.372Z,94749.41
2017-12-17T06:08:55.949Z,94753.80
2017-12-17T06:11:23.599Z,94762.33
2017-12-17T06:13:51.194Z,94762.73
2017-12-17T06:16:18.814Z,94770.73
2017-12-17T06:18:46.404Z,94759.89
2017-12-17T06:21:13.985Z,94757.30
2017-12-17T06:23:41.614Z,94754.96
2017-12-17T06:26:09.423Z,94756.98
2017-12-17T06:28:37.057Z,94753.62
2017-12-17T06:31:04.665Z,94748.16
2017-12-17T06:33:32.242Z,94743.61
2017-12-17T06:35:59.794Z,94743.16
2017-12-17T06:38:27.697Z,94753.84
2017-12-17T06:40:55.513Z,94760.57
2017-12-17T06:43:23.138Z,94747.30
2017-12-17T06:45:50.770Z,94746.06
2017-12-17T06:48:18.331Z,94739.28
2017-12-17T06:50:46.104Z,94739.20
2017-12-17T06:53:13.772Z,94735.60
2017-12-17T06:55:41.360Z,94741.69
2017-12-17T06:58:09.038Z,94746.31
2017-12-17T07:00:36.627Z,94752.00
2017-12-17T07:03:04.224Z,94761.97
2017-12-17T07:05:31.757Z,94755.27
2017-12-17T07:07:59.351Z,94755.08
2017-12-17T07:10:27.878Z,94760.02
2017-12-17T07:12:55.466Z,94755.02
2017-12-17T07:15:24.508Z,94759.90
2017-12-17T07:17:52.116Z,94764.11
2017-12-17T07:20:19.808Z,94759.13
2017-12-17T07:22:47.419Z,94747.30
2017-12-17T07:25:15.225Z,94766.16
2017-12-17T07:27:42.795Z,94776.90
2017-12-17T07:30:10.562Z,94775.93
2017-12-17T07:32:38.373Z,94772.47
2017-12-17T07:35:05.934Z,94771.36
2017-12-17T07:37:33.562Z,94770.08
2017-12-17T07:40:01.425Z,94764.23
2017-12-17T07:42:29.011Z,94762.35
2017-12-17T07:44:56.639Z,94781.56
2017-12-17T07:47:24.268Z,94772.04
2017-12-17T07:49:51.820Z,94782.22
2017-12-17T07:52:19.420Z,94788.48
2017-12-17T07:54:47.673Z,94802.89
2017-12-17T07:57:15.475Z,94795.44
2017-12-17T07:59:43.124Z,94793.69
2017-12-17T08:02:10.930Z,94801.36
2017-12-17T08:04:38.579Z,94791.87
2017-12-17T08:07:06.372Z,94785.08
2017-12-17T08:09:34.057Z,94782.34
2017-12-17T08:12:01.629Z,94781.91
2017-12-17T08:14:29.657Z,94779.91
2017-12-17T08:16:57.279Z,94781.16
2017-12-17T08:19:25.108Z,94781.56
2017-12-17T08:21:52.728Z,94775.05
2017-12-17T08:24:21.362Z,94754.77
2017-12-17T08:26:54.526Z,94768.61
2017-12-17T08:29:24.186Z,94774.67
2017-12-17T08:31:51.869Z,94787.39
2017-12-17T08:34:19.780Z,94791.66
2017-12-17T08:36:47.334Z,94793.67
2017-12-17T08:39:15.132Z,94794.37
2017-12-17T08:41:44.173Z,94798.11
2017-12-17T08:44:13.560Z,94801.03
2017-12-17T08:46:41.286Z,94815.22
2017-12-17T08:49:10.180Z,94820.65
2017-12-17T08:55:25.089Z,94817.94
2017-12-17T08:57:52.706Z,94817.86
2017-12-17T09:00:24.069Z,94819.12
2017-12-17T09:02:51.691Z,94820.06
2017-12-17T09:05:19.500Z,94826.58
2017-12-17T09:07:47.220Z,94840.03
2017-12-17T09:10:18.125Z,94848.03
2017-12-17T09:12:48.173Z,94847.72
2017-12-17T09:15:19.173Z,94846.84
2017-12-17T09:17:47.806Z,94822.00
2017-12-17T09:20:16.749Z,94830.92
2017-12-17T09:22:44.598Z,94815.81
2017-12-17T09:25:12.664Z,94816.53
2017-12-17T09:27:40.321Z,94817.36
2017-12-17T09:30:09.416Z,94823.45
2017-12-17T09:32:37.260Z,94833.45
2017-12-17T09:35:05.447Z,94836.20
2017-12-17T09:37:35.021Z,94824.71
2017-12-17T09:40:02.883Z,94811.41
2017-12-17T09:42:30.703Z,94812.78
2017-12-17T09:44:58.603Z,94809.20
2017-12-17T09:47:26.253Z,94819.28
2017-12-17T09:49:53.844Z,94820.24
2017-12-17T09:52:21.467Z,94832.69
2017-12-17T09:54:49.636Z,94831.34
2017-12-17T09:57:17.476Z,94826.26
2017-12-17T09:59:45.341Z,94809.75
2017-12-17T10:02:13.725Z,94806.92
2017-12-17T10:04:42.667Z,94797.73
2017-12-17T10:07:10.580Z,94793.63
2017-12-17T10:09:38.929Z,94788.73
2017-12-17T10:12:06.743Z,94798.36
2017-12-17T10:14:34.433Z,94806.23
2017-12-17T10:17:02.160Z,94802.52
2017-12-17T10:19:30.926Z,94795.53
2017-12-17T10:21:58.561Z,94781.44
2017-12-17T10:24:26.239Z,94779.77
2017-12-17T10:26:53.877Z,94782.77
2017-12-17T10:29:21.700Z,94783.61
2017-12-17T10:31:49.415Z,94784.36
2017-12-17T10:34:17.198Z,94780.06
2017-12-17T10:36:46.096Z,94764.66
2017-12-17T10:39:14.568Z,94761.74
2017-12-17T10:41:43.333Z,94767.73
2017-12-17T10:44:11.138Z,94773.63
2017-12-17T10:46:38.828Z,94780.74
2017-12-17T10:49:06.420Z,94779.20
2017-12-17T10:51:34.045Z,94780.21
2017-12-17T10:54:02.543Z,94765.73
2017-12-17T10:56:30.274Z,94772.52
2017-12-17T10:58:58.191Z,94784.69
2017-12-17T11:01:25.849Z,94789.08
2017-12-17T11:03:54.313Z,94785.41
2017-12-17T11:06:22.716Z,94772.58
2017-12-17T11:08:50.476Z,94771.97
2017-12-17T11:11:19.768Z,94777.30
2017-12-17T11:13:47.537Z,94775.73
2017-12-17T11:16:15.288Z,94773.58
2017-12-17T11:18:43.142Z,94774.23
2017-12-17T11:21:11.236Z,94772.25
2017-12-17T11:23:40.021Z,94793.92
2017-12-17T11:26:07.705Z,94787.50
2017-12-17T11:28:35.531Z,94788.45
2017-12-17T11:31:04.121Z,94793.94
2017-12-17T11:33:31.916Z,94810.61
2017-12-17T11:35:59.552Z,94816.14
2017-12-17T11:38:27.552Z,94823.44
2017-12-17T11:40:56.154Z,94817.50
2017-12-17T11:43:25.435Z,94834.27
2017-12-17T11:45:54.048Z,94832.33
2017-12-17T11:48:21.777Z,94825.19
2017-12-17T11:50:49.611Z,94822.57
2017-12-17T11:53:18.184Z,94810.48
2017-12-17T11:55:46.535Z,94814.08
2017-12-17T11:58:15.261Z,94807.64
2017-12-17T12:00:43.271Z,94817.45
2017-12-17T12:03:12.675Z,94816.28
2017-12-17T12:05:41.022Z,94835.69
2017-12-17T12:08:08.677Z,94839.66
2017-12-17T12:10:42.114Z,94832.05
2017-12-17T12:13:11.009Z,94838.66
2017-12-17T12:15:52.717Z,94838.16
2017-12-17T12:18:22.014Z,94836.03
2017-12-17T12:20:49.895Z,94830.73
2017-12-17T12:23:17.553Z,94826.53
2017-12-17T12:25:45.554Z,94818.13
2017-12-17T12:28:14.742Z,94814.62
2017-12-17T12:30:49.563Z,94819.10
2017-12-17T12:33:20.870Z,94823.53
2017-12-17T12:43:13.700Z,94847.52
2017-12-17T12:45:54.691Z,94841.05
2017-12-17T12:57:44.602Z,94857.21
2017-12-17T13:00:13.653Z,94844.79
2017-12-17T13:02:41.336Z,94847.18
2017-12-17T13:05:08.975Z,94847.34
2017-12-17T13:07:41.748Z,94854.13
2017-12-17T13:10:10.209Z,94851.13
2017-12-17T13:12:37.973Z,94847.59
2017-12-17T13:15:05.665Z,94850.20
2017-12-17T13:17:33.502Z,94850.02
2017-12-17T13:20:01.425Z,94843.69
2017-12-17T13:22:29.425Z,94831.69
2017-12-17T13:24:57.905Z,94820.83
2017-12-17T13:27:26.497Z,94811.83
2017-12-17T13:29:54.166Z,94821.98
2017-12-17T13:32:22.591Z,94827.87
2017-12-17T13:34:50.376Z,94819.71
2017-12-17T13:37:18.000Z,94819.38
2017-12-17T13:39:46.612Z,94837.62
2017-12-17T13:42:14.473Z,94854.20
2017-12-17T13:44:42.127Z,94853.05
2017-12-17T13:47:09.767Z,94852.25
2017-12-17T13:49:37.636Z,94853.78
2017-12-17T13:52:05.512Z,94866.24
2017-12-17T13:54:33.371Z,94884.18
2017-12-17T13:57:02.097Z,94894.13
2017-12-17T13:59:30.181Z,94908.92
2017-12-17T14:01:57.858Z,94914.16
2017-12-17T14:04:26.656Z,94910.48
2017-12-17T14:06:54.753Z,94916.49
2017-12-17T14:12:58.243Z,94929.23
2017-12-17T14:15:26.462Z,94930.16
2017-12-17T14:17:54.286Z,94927.95
2017-12-17T14:20:31.777Z,94930.97
2017-12-17T14:23:00.457Z,94937.48
2017-12-17T14:25:28.108Z,94945.23
2017-12-17T14:27:55.747Z,94928.88
2017-12-17T14:30:24.059Z,94934.33
2017-12-17T14:32:52.513Z,94940.74
2017-12-17T14:35:20.149Z,94940.66
2017-12-17T14:37:48.711Z,94942.19
2017-12-17T14:40:28.218Z,94934.96
2017-12-17T14:42:55.874Z,94925.69
2017-12-17T14:45:23.543Z,94933.86
2017-12-17T14:47:51.229Z,94938.75
2017-12-17T14:50:28.116Z,94950.03
2017-12-17T14:52:56.609Z,94949.22
2017-12-17T14:58:04.250Z,94960.30
2017-12-17T15:00:32.174Z,94968.63
2017-12-17T15:03:03.744Z,94959.97
2017-12-17T15:05:43.710Z,94961.82
2017-12-17T15:08:11.586Z,94961.05
2017-12-17T15:10:39.594Z,94971.17
2017-12-17T15:13:07.323Z,94970.42
2017-12-17T15:15:35.622Z,94965.95
2017-12-17T15:18:03.397Z,94979.07
2017-12-17T15:20:31.054Z,94977.98
2017-12-17T15:23:00.118Z,94985.28
2017-12-17T15:25:27.794Z,94975.67
2017-12-17T15:27:57.219Z,94972.59
2017-12-17T15:30:25.921Z,94976.41
2017-12-17T15:32:53.683Z,94985.84
2017-12-17T15:35:21.488Z,94990.84
2017-12-17T15:37:50.496Z,94992.92
2017-12-17T15:40:19.068Z,94990.84
2017-12-17T15:42:47.144Z,94998.69
2017-12-17T15:45:15.820Z,94998.05
2017-12-17T15:47:43.683Z,95003.94
2017-12-17T15:50:12.288Z,95004.78
2017-12-17T15:52:39.979Z,95011.95
2017-12-17T15:55:07.694Z,95015.27
2017-12-17T15:57:35.313Z,95022.88
2017-12-17T16:00:05.091Z,95021.14
2017-12-17T16:02:32.705Z,95021.38
2017-12-17T16:05:00.443Z,95024.07
2017-12-17T16:07:28.172Z,95021.11
2017-12-17T16:09:55.836Z,95026.95
2017-12-17T16:12:23.555Z,95025.23
2017-12-17T16:14:51.351Z,95030.44
2017-12-17T16:17:19.483Z,95035.28
2017-12-17T16:19:49.281Z,95032.55
2017-12-17T16:22:18.561Z,95031.83
2017-12-17T16:24:51.643Z,95037.05
2017-12-17T16:27:20.261Z,95035.98
2017-12-17T16:29:48.044Z,95046.14
2017-12-17T16:32:18.176Z,95053.70
2017-12-17T16:37:22.569Z,95062.77
2017-12-17T16:39:51.682Z,95060.82
2017-12-17T16:42:20.353Z,95063.59
2017-12-17T16:44:48.948Z,95067.20
2017-12-17T16:47:17.416Z,95072.76
2017-12-17T16:49:45.103Z,95080.22
2017-12-17T16:52:12.976Z,95092.34
2017-12-17T16:54:44.048Z,95094.39
2017-12-17T16:57:11.719Z,95100.91
2017-12-17T16:59:41.841Z,95098.83
2017-12-17T17:02:09.554Z,95106.14
2017-12-17T17:04:37.290Z,95106.34
2017-12-17T17:07:05.358Z,95113.19
2017-12-17T17:09:33.320Z,95108.87
2017-12-17T17:12:01.067Z,95117.17
2017-12-17T17:14:28.712Z,95123.39
2017-12-17T17:16:57.059Z,95128.23
2017-12-17T17:19:25.764Z,95131.97
2017-12-17T17:21:53.404Z,95129.69
2017-12-17T17:24:21.047Z,95139.84
2017-12-17T17:26:48.958Z,95148.98
2017-12-17T17:29:16.838Z,95141.83
2017-12-17T17:31:44.788Z,95150.97
2017-12-17T17:34:13.365Z,95150.53
2017-12-17T17:36:41.022Z,95150.82
2017-12-17T17:39:09.299Z,95166.16
2017-12-17T17:41:38.116Z,95165.70
2017-12-17T17:44:06.031Z,95165.48
2017-12-17T17:46:33.730Z,95167.07
2017-12-17T17:49:01.377Z,95181.44
2017-12-17T17:51:29.288Z,95185.75
2017-12-17T17:53:57.013Z,95191.03
2017-12-17T17:56:25.179Z,95182.23
2017-12-17T17:58:53.738Z,95188.57
2017-12-17T18:01:22.120Z,95187.33
2017-12-17T18:03:49.916Z,95190.00
2017-12-17T18:06:18.103Z,95182.81
2017-12-17T18:08:47.488Z,95185.82
2017-12-17T18:11:15.864Z,95193.55
2017-12-17T18:13:43.646Z,95182.75
2017-12-17T18:16:12.284Z,95197.06
2017-12-17T18:18:41.510Z,95201.82
2017-12-17T18:21:12.954Z,95203.41
2017-12-17T18:23:41.352Z,95203.89
2017-12-17T18:26:09.179Z,95195.28
2017-12-17T18:28:38.168Z,95204.23
2017-12-17T18:31:05.853Z,95193.30
2017-12-17T18:33:33.739Z,95193.30
2017-12-17T18:36:01.570Z,95193.80
2017-12-17T18:38:29.386Z,95197.95
2017-12-17T18:40:56.972Z,95199.59
2017-12-17T18:43:25.235Z,95200.16
2017-12-17T18:45:53.052Z,95200.01
2017-12-17T18:48:20.819Z,95196.41
2017-12-17T18:50:50.301Z,95198.83
2017-12-17T18:53:18.753Z,95212.55
2017-12-17T18:55:46.347Z,95208.68
2017-12-17T18:58:14.654Z,95212.06
2017-12-17T19:00:43.073Z,95216.00
2017-12-17T19:03:11.833Z,95227.48
2017-12-17T19:05:44.804Z,95217.91
2017-12-17T19:08:24.535Z,95227.70
2017-12-17T19:10:52.460Z,95228.09
2017-12-17T19:13:21.249Z,95237.67
2017-12-17T19:15:50.373Z,95232.38
2017-12-17T19:18:18.022Z,95231.75
2017-12-17T19:20:46.330Z,95235.00
2017-12-17T19:23:13.994Z,95236.14
2017-12-17T19:25:41.632Z,95246.88
2017-12-17T19:28:09.284Z,95242.09
2017-12-17T19:30:37.689Z,95245.09
2017-12-17T19:33:05.415Z,95252.67
2017-12-17T19:35:33.200Z,95251.17
2017-12-17T19:38:01.717Z,95250.50
2017-12-17T19:40:31.608Z,95257.53
2017-12-17T19:43:01.012Z,95254.41
2017-12-17T19:45:29.660Z,95254.45
2017-12-17T19:47:59.022Z,95259.00
2017-12-17T19:50:26.733Z,95254.45
2017-12-17T19:52:55.164Z,95256.82
2017-12-17T19:55:22.872Z,95258.02
2017-12-17T19:57:50.648Z,95259.27
2017-12-17T20:00:18.578Z,95253.07
2017-12-17T20:02:46.396Z,95257.05
2017-12-17T20:05:14.655Z,95263.89
2017-12-17T20:07:43.335Z,95265.14
2017-12-17T20:10:11.087Z,95270.00
2017-12-17T20:12:39.851Z,95266.66
2017-12-17T20:15:07.762Z,95281.17
2017-12-17T20:17:36.547Z,95276.37
2017-12-17T20:20:05.706Z,95270.35
2017-12-17T20:22:36.374Z,95255.48
2017-12-17T20:25:04.198Z,95270.17
2017-12-17T20:27:32.317Z,95278.01
2017-12-17T20:29:59.915Z,95283.63
2017-12-17T20:32:28.163Z,95290.17
2017-12-17T20:34:55.784Z,95286.11
2017-12-17T20:37:24.124Z,95290.44
2017-12-17T20:39:52.729Z,95290.57
2017-12-17T20:42:20.399Z,95302.41
2017-12-17T20:44:48.645Z,95301.30
2017-12-17T20:47:16.265Z,95313.58
2017-12-17T20:49:44.095Z,95318.42
2017-12-17T20:52:12.522Z,95320.97
2017-12-17T20:54:40.155Z,95331.66
2017-12-17T20:57:08.021Z,95330.00
2017-12-17T20:59:36.542Z,95339.66
2017-12-17T21:02:11.950Z,95331.63
2017-12-17T21:04:39.772Z,95338.66
2017-12-17T21:07:07.340Z,95348.80
2017-12-17T21:09:34.933Z,95351.07
2017-12-17T21:12:02.495Z,95354.59
2017-12-17T21:14:32.117Z,95366.19
2017-12-17T21:16:59.746Z,95364.16
2017-12-17T21:19:27.408Z,95371.12
2017-12-17T21:22:04.099Z,95374.38
2017-12-17T21:24:32.821Z,95374.26
2017-12-17T21:27:00.395Z,95368.84
2017-12-17T21:29:28.023Z,95375.99
2017-12-17T21:31:55.629Z,95370.18
2017-12-17T21:34:23.443Z,95377.08
2017-12-17T21:36:51.636Z,95374.33
2017-12-17T21:39:20.282Z,95378.75
2017-12-17T21:41:47.918Z,95388.70
2017-12-17T21:44:16.454Z,95388.44
2017-12-17T21:46:44.082Z,95386.73
2017-12-17T21:49:12.379Z,95389.92
2017-12-17T21:51:39.971Z,95392.79
2017-12-17T21:54:07.583Z,95388.31
2017-12-17T21:56:35.378Z,95391.36
2017-12-17T21:59:03.183Z,95392.63
2017-12-17T22:01:30.851Z,95401.34
2017-12-17T22:04:06.437Z,95404.23
2017-12-17T22:06:51.823Z,95402.48
2017-12-17T22:09:20.047Z,95397.34
2017-12-17T22:11:47.797Z,95397.22
2017-12-17T22:14:17.270Z,95394.34
2017-12-17T22:16:44.935Z,95401.28
2017-12-17T22:19:12.586Z,95404.16
2017-12-17T22:21:40.170Z,95400.02
2017-12-17T22:24:07.792Z,95411.23
2017-12-17T22:26:35.400Z,95407.98
2017-12-17T22:29:06.677Z,95404.24
2017-12-17T22:31:35.164Z,95412.25
2017-12-17T22:34:04.828Z,95412.08
2017-12-17T22:36:32.588Z,95415.49
2017-12-17T22:39:01.295Z,95409.16
2017-12-17T22:41:29.151Z,95421.19
2017-12-17T22:43:56.737Z,95400.97
2017-12-17T22:46:24.967Z,95401.78
2017-12-17T22:48:52.589Z,95402.33
2017-12-17T22:51:21.510Z,95413.48
2017-12-17T22:53:50.618Z,95390.66
2017-12-17T22:56:18.448Z,95405.55
2017-12-17T22:58:46.600Z,95371.53
2017-12-17T23:01:14.152Z,95398.20
2017-12-17T23:03:41.932Z,95401.05
2017-12-17T23:06:09.726Z,95397.94
2017-12-17T23:08:37.315Z,95399.58
2017-12-17T23:11:05.538Z,95399.91
2017-12-17T23:13:33.295Z,95397.87
2017-12-17T23:16:00.890Z,95401.34
2017-12-17T23:18:28.515Z,95402.34
2017-12-17T23:20:56.294Z,95395.14
2017-12-17T23:23:23.953Z,95388.88
2017-12-17T23:25:51.767Z,95394.03
2017-12-17T23:28:19.552Z,95392.95
2017-12-17T23:30:47.497Z,95400.13
2017-12-17T23:33:15.166Z,95395.71
2017-12-17T23:35:43.561Z,95397.30
2017-12-17T23:38:11.194Z,95405.42
2017-12-17T23:40:38.955Z,95410.97
2017-12-17T23:43:06.628Z,95411.56
2017-12-17T23:45:34.267Z,95395.57
2017-12-17T23:48:03.154Z,95406.60
2017-12-17T23:50:30.711Z,95400.58
2017-12-17T23:52:58.297Z,95398.44
2017-12-17T23:55:25.842Z,95397.37
2017-12-17T23:57:53.736Z,95402.44
